Pagrindinis puslapis
METAR-TAF:

METAR-TAF

Oro uostai :

San Antonio del Táchira, Venesuela

platuma: 07-51N, ilguma: 072-27W, Aukštis: 377 m

METAR: trūkstamas

Laikas: 09:09 (13:09 UTC)

Prognozė

Ataskaita buvo paskelbta 3 valandos ir 9 minutes, ne 10:00 UTC
Prognozė galioja nuo 31 metu 12 UTC su 01 metu 12 UTC
Vėjas 5 kt iš Pietų
Matomumas 10 km arba daugiau
Su prošvaistėmis ne aukštis 1600 ft
Laikinai
nuo 31 metu 12 UTC su 31 metu 16 UTC
Vėjas 3 kt iš Pietų/Pietryčių
Matomumas: 9000 m
Su prošvaistėmis ne aukštis 1600 ft
dulksna

TAF: SVSA 311000Z 3112/0112 18005KT 9999 BKN016 TX31/19Z TN21/08Z TEMPO 3112/3116 16003KT 9000 -DZ BKN016

Orai ataskaitas ir orų prognozės (METAR, TAF).

turimą stotys yra geltonos ir raudonos taškus žemėlapyje.

Perkelti pele per norėdami pamatyti stoties vardą.

Tada spustelėkite, norėdami matyti oro stebėjimo ir prognozės.

Norėdami pakeisti žemėlapį: spustelėkite ant žalios mygtukų su juodo kryžiaus žemyn,; žalią mygtuką su brūkšneliu, jei norite nutolinti; arba žalių rodyklių gretimoms žemėlapius.


METAR-TAF: